createdAt,value
2022-10-17T00:00:45.666Z,21.99
2022-10-17T00:01:47.484Z,21.95
2022-10-17T00:02:49.336Z,21.99
2022-10-17T00:03:51.131Z,21.92
2022-10-17T00:04:52.967Z,21.98
2022-10-17T00:05:54.874Z,21.93
2022-10-17T00:06:56.747Z,21.97
2022-10-17T00:07:58.540Z,21.91
2022-10-17T00:09:00.300Z,21.97
2022-10-17T00:10:02.054Z,21.95
2022-10-17T00:11:06.783Z,21.93
2022-10-17T00:12:08.531Z,21.95
2022-10-17T00:13:11.018Z,21.94
2022-10-17T00:14:12.844Z,21.95
2022-10-17T00:15:19.595Z,21.93
2022-10-17T00:16:25.557Z,21.94
2022-10-17T00:17:27.528Z,21.93
2022-10-17T00:18:29.563Z,21.82
2022-10-17T00:19:31.292Z,21.92
2022-10-17T00:20:35.738Z,21.86
2022-10-17T00:21:37.477Z,21.79
2022-10-17T00:22:39.393Z,21.83
2022-10-17T00:23:41.201Z,21.89
2022-10-17T00:24:42.917Z,21.90
2022-10-17T00:25:44.661Z,21.77
2022-10-17T00:26:46.343Z,21.83
2022-10-17T00:27:48.378Z,21.87
2022-10-17T00:28:52.511Z,21.82
2022-10-17T00:29:54.475Z,21.88
2022-10-17T00:31:02.450Z,21.86
2022-10-17T00:32:04.310Z,21.88
2022-10-17T00:33:06.450Z,21.86
2022-10-17T00:34:08.219Z,21.86
2022-10-17T00:35:10.318Z,21.84
2022-10-17T00:36:15.505Z,21.70
2022-10-17T00:37:17.507Z,21.77
2022-10-17T00:38:19.250Z,21.83
2022-10-17T00:39:21.017Z,21.74
2022-10-17T00:40:23.239Z,21.81
2022-10-17T00:41:30.888Z,21.79
2022-10-17T00:42:32.740Z,21.80
2022-10-17T00:43:54.634Z,21.85
2022-10-17T00:45:19.647Z,21.89
2022-10-17T00:46:23.063Z,21.87
2022-10-17T00:47:24.902Z,21.76
2022-10-17T00:48:26.655Z,21.80
2022-10-17T00:49:33.158Z,21.75
2022-10-17T00:50:37.071Z,21.75
2022-10-17T00:51:45.161Z,21.74
2022-10-17T00:52:48.883Z,21.75
2022-10-17T00:53:51.914Z,21.74
2022-10-17T00:55:01.440Z,21.73
2022-10-17T00:56:03.258Z,21.74
2022-10-17T00:57:05.208Z,21.73
2022-10-17T00:58:07.026Z,21.71
2022-10-17T00:59:12.469Z,21.70
2022-10-17T01:00:15.786Z,21.70
2022-10-17T01:01:17.746Z,21.69
2022-10-17T01:02:21.735Z,21.69
2022-10-17T01:03:24.195Z,21.69
2022-10-17T01:04:26.070Z,21.64
2022-10-17T01:05:29.151Z,21.66
2022-10-17T01:06:31.040Z,21.58
2022-10-17T01:07:37.162Z,21.57
2022-10-17T01:08:39.950Z,21.67
2022-10-17T01:09:43.524Z,21.64
2022-10-17T01:10:47.938Z,21.66
2022-10-17T01:11:56.053Z,21.66
2022-10-17T01:13:06.754Z,21.66
2022-10-17T01:14:32.962Z,21.73
2022-10-17T01:15:39.110Z,21.73
2022-10-17T01:16:52.375Z,21.70
2022-10-17T01:18:22.734Z,21.76
2022-10-17T01:19:44.151Z,21.69
2022-10-17T01:21:04.526Z,21.75
2022-10-17T01:22:14.096Z,21.74
2022-10-17T01:23:19.237Z,21.70
2022-10-17T01:24:38.935Z,21.71
2022-10-17T01:25:56.048Z,21.69
2022-10-17T01:27:19.615Z,21.68
2022-10-17T01:29:02.643Z,21.80
2022-10-17T01:30:27.018Z,21.74
2022-10-17T01:31:34.154Z,21.71
2022-10-17T01:32:48.250Z,21.68
2022-10-17T01:33:49.877Z,21.66
2022-10-17T01:34:54.604Z,21.60
2022-10-17T01:36:22.434Z,21.57
2022-10-17T01:37:24.100Z,21.63
2022-10-17T01:38:35.378Z,21.59
2022-10-17T01:40:00.275Z,21.58
2022-10-17T01:41:12.514Z,21.61
2022-10-17T01:42:23.979Z,21.59
2022-10-17T01:43:41.304Z,21.61
2022-10-17T01:44:50.168Z,21.58
2022-10-17T01:46:16.430Z,21.62
2022-10-17T01:47:22.068Z,21.58
2022-10-17T01:48:28.525Z,21.56
2022-10-17T01:49:32.402Z,21.47
2022-10-17T01:50:45.538Z,21.53
2022-10-17T01:51:52.876Z,21.48
2022-10-17T01:53:02.155Z,21.52
2022-10-17T01:54:26.742Z,21.57
2022-10-17T01:55:35.049Z,21.54
2022-10-17T01:56:40.632Z,21.53
2022-10-17T01:57:49.459Z,21.50
2022-10-17T01:58:56.439Z,21.47
2022-10-17T01:59:58.375Z,21.51
2022-10-17T02:01:04.723Z,21.47
2022-10-17T02:02:08.609Z,21.46
2022-10-17T02:03:14.420Z,21.37
2022-10-17T02:04:16.539Z,21.46
2022-10-17T02:05:24.950Z,21.45
2022-10-17T02:06:26.919Z,21.43
2022-10-17T02:07:29.814Z,21.39
2022-10-17T02:08:45.193Z,21.45
2022-10-17T02:09:47.190Z,21.47
2022-10-17T02:10:57.556Z,21.45
2022-10-17T02:12:36.802Z,21.51
2022-10-17T02:13:53.571Z,21.52
2022-10-17T02:15:13.872Z,21.52
2022-10-17T02:16:27.599Z,21.51
2022-10-17T02:17:32.935Z,21.49
2022-10-17T02:18:52.803Z,21.50
2022-10-17T02:20:29.410Z,21.52
2022-10-17T02:21:40.707Z,21.48
2022-10-17T02:22:49.587Z,21.46
2022-10-17T02:24:05.026Z,21.48
2022-10-17T02:25:11.112Z,21.46
2022-10-17T02:26:30.810Z,21.47
2022-10-17T02:27:44.141Z,21.45
2022-10-17T02:29:12.151Z,21.45
2022-10-17T02:30:44.300Z,21.53
2022-10-17T02:31:58.534Z,21.51
2022-10-17T02:33:06.861Z,21.46
2022-10-17T02:34:21.055Z,21.45
2022-10-17T02:35:28.008Z,21.44
2022-10-17T02:36:36.609Z,21.41
2022-10-17T02:37:39.037Z,21.32
2022-10-17T02:38:42.406Z,21.38
2022-10-17T02:39:44.765Z,21.37
2022-10-17T02:40:50.827Z,21.34
2022-10-17T02:41:55.553Z,21.35
2022-10-17T02:42:59.700Z,21.34
2022-10-17T02:44:03.767Z,21.35
2022-10-17T02:45:06.554Z,21.34
2022-10-17T02:46:08.506Z,21.32
2022-10-17T02:47:16.254Z,21.32
2022-10-17T02:48:36.699Z,21.37
2022-10-17T02:49:43.414Z,21.34
2022-10-17T02:51:03.027Z,21.37
2022-10-17T02:52:14.493Z,21.33
2022-10-17T02:53:25.319Z,21.37
2022-10-17T02:54:46.130Z,21.39
2022-10-17T02:55:58.982Z,21.39
2022-10-17T02:57:12.502Z,21.39
2022-10-17T02:58:24.239Z,21.31
2022-10-17T02:59:29.550Z,21.31
2022-10-17T03:00:32.790Z,21.35
2022-10-17T03:01:36.154Z,21.32
2022-10-17T03:02:44.123Z,21.22
2022-10-17T03:03:46.194Z,21.32
2022-10-17T03:04:47.951Z,21.30
2022-10-17T03:05:52.205Z,21.29
2022-10-17T03:06:56.905Z,21.28
2022-10-17T03:07:59.164Z,21.22
2022-10-17T03:09:00.942Z,21.27
2022-10-17T03:10:04.367Z,21.27
2022-10-17T03:11:06.475Z,21.24
2022-10-17T03:12:08.798Z,21.19
2022-10-17T03:13:10.832Z,21.26
2022-10-17T03:14:15.190Z,21.25
2022-10-17T03:15:17.588Z,21.26
2022-10-17T03:16:19.375Z,21.27
2022-10-17T03:17:21.194Z,21.23
2022-10-17T03:18:23.447Z,21.20
2022-10-17T03:19:28.854Z,21.21
2022-10-17T03:20:30.744Z,21.24
2022-10-17T03:21:32.622Z,21.25
2022-10-17T03:22:34.575Z,21.21
2022-10-17T03:23:38.254Z,21.26
2022-10-17T03:24:41.275Z,21.19
2022-10-17T03:25:43.156Z,21.26
2022-10-17T03:27:53.227Z,21.28
2022-10-17T03:28:55.362Z,21.21
2022-10-17T03:29:58.183Z,21.27
2022-10-17T03:31:00.011Z,21.26
2022-10-17T03:32:02.090Z,21.25
2022-10-17T03:33:03.896Z,21.26
2022-10-17T03:34:05.646Z,21.24
2022-10-17T03:35:09.254Z,21.24
2022-10-17T03:36:17.218Z,21.24
2022-10-17T03:37:20.446Z,21.26
2022-10-17T03:38:22.302Z,21.24
2022-10-17T03:39:24.225Z,21.24
2022-10-17T03:40:26.018Z,21.24
2022-10-17T03:41:29.243Z,21.18
2022-10-17T03:42:32.346Z,21.17
2022-10-17T03:43:34.723Z,21.24
2022-10-17T03:44:36.429Z,21.23
2022-10-17T03:45:39.268Z,21.22
2022-10-17T03:46:42.391Z,21.24
2022-10-17T03:47:44.182Z,21.17
2022-10-17T03:48:46.007Z,21.23
2022-10-17T03:49:47.693Z,21.22
2022-10-17T03:50:50.409Z,21.22
2022-10-17T03:51:52.201Z,21.23
2022-10-17T03:52:54.526Z,21.22
2022-10-17T03:53:56.298Z,21.21
2022-10-17T03:54:57.970Z,21.22
2022-10-17T03:56:14.212Z,21.24
2022-10-17T03:57:16.255Z,21.18
2022-10-17T03:58:18.513Z,21.16
2022-10-17T03:59:20.259Z,21.23
2022-10-17T04:00:30.641Z,21.20
2022-10-17T04:01:33.437Z,21.23
2022-10-17T04:02:36.034Z,21.22
2022-10-17T04:03:38.151Z,21.16
2022-10-17T04:04:39.939Z,21.22
2022-10-17T04:05:42.027Z,21.19
2022-10-17T04:06:43.803Z,21.20
2022-10-17T04:07:45.984Z,21.21
2022-10-17T04:08:49.337Z,21.09
2022-10-17T04:10:05.707Z,21.23
2022-10-17T04:11:09.165Z,21.22
2022-10-17T04:12:10.958Z,21.21
2022-10-17T04:13:13.137Z,21.21
2022-10-17T04:14:14.909Z,21.19
2022-10-17T04:15:17.411Z,21.19
2022-10-17T04:16:20.283Z,21.19
2022-10-17T04:17:37.235Z,21.19
2022-10-17T04:18:41.490Z,21.21
2022-10-17T04:19:43.207Z,21.15
2022-10-17T04:20:44.907Z,21.20
2022-10-17T04:21:47.076Z,21.19
2022-10-17T04:22:49.770Z,21.19
2022-10-17T04:23:59.179Z,21.18
2022-10-17T04:25:27.382Z,21.26
2022-10-17T04:26:29.223Z,21.22
2022-10-17T04:27:31.233Z,21.20
2022-10-17T04:28:33.967Z,21.19
2022-10-17T04:29:35.820Z,21.19
2022-10-17T04:30:59.993Z,21.22
2022-10-17T04:32:07.627Z,21.19
2022-10-17T04:33:22.123Z,21.23
2022-10-17T04:34:23.857Z,21.22
2022-10-17T04:35:25.853Z,21.12
2022-10-17T04:36:35.374Z,21.21
2022-10-17T04:37:37.492Z,21.19
2022-10-17T04:38:47.834Z,21.20
2022-10-17T04:39:49.665Z,21.14
2022-10-17T04:40:51.651Z,21.17
2022-10-17T04:41:53.918Z,21.15
2022-10-17T04:42:55.694Z,21.15
2022-10-17T04:44:05.426Z,21.18
2022-10-17T04:45:10.996Z,21.18
2022-10-17T04:46:14.953Z,21.15
2022-10-17T04:47:16.808Z,21.16
2022-10-17T04:48:19.161Z,21.15
2022-10-17T04:49:21.058Z,21.13
2022-10-17T04:50:26.956Z,21.13
2022-10-17T04:52:04.166Z,21.25
2022-10-17T04:53:12.415Z,21.22
2022-10-17T04:54:14.181Z,21.18
2022-10-17T04:55:18.241Z,21.17
2022-10-17T04:56:22.187Z,21.14
2022-10-17T04:57:25.057Z,21.15
2022-10-17T04:58:43.372Z,21.18
2022-10-17T04:59:45.187Z,21.16
2022-10-17T05:01:17.001Z,21.21
2022-10-17T05:02:23.474Z,21.21
2022-10-17T05:03:25.970Z,20.93
2022-10-17T05:04:27.684Z,21.13
2022-10-17T05:05:29.570Z,21.09
2022-10-17T05:06:33.170Z,21.14
2022-10-17T05:07:53.356Z,21.19
2022-10-17T05:08:59.033Z,21.12
2022-10-17T05:10:01.158Z,21.18
2022-10-17T05:11:05.994Z,21.18
2022-10-17T05:12:10.228Z,21.18
2022-10-17T05:13:14.947Z,21.21
2022-10-17T05:14:16.894Z,21.22
2022-10-17T05:15:18.687Z,21.23
2022-10-17T05:16:21.522Z,21.25
2022-10-17T05:17:24.168Z,21.28
2022-10-17T05:18:26.024Z,21.31
2022-10-17T05:19:27.806Z,21.34
2022-10-17T05:20:29.603Z,21.31
2022-10-17T05:22:42.098Z,21.46
2022-10-17T05:23:45.855Z,21.51
2022-10-17T05:24:47.703Z,21.48
2022-10-17T05:25:54.775Z,21.56
2022-10-17T05:26:59.079Z,21.63
2022-10-17T05:28:00.806Z,21.66
2022-10-17T05:29:03.405Z,21.68
2022-10-17T05:30:08.394Z,21.73
2022-10-17T05:31:11.677Z,21.67
2022-10-17T05:32:14.754Z,21.75
2022-10-17T05:33:16.569Z,21.68
2022-10-17T05:34:18.359Z,21.86
2022-10-17T05:35:20.659Z,21.85
2022-10-17T05:36:22.725Z,21.90
2022-10-17T05:37:24.462Z,21.95
2022-10-17T05:38:29.261Z,21.98
2022-10-17T05:39:31.539Z,22.00
2022-10-17T05:40:34.676Z,22.05
2022-10-17T05:41:37.547Z,22.09
2022-10-17T05:43:43.839Z,22.14
2022-10-17T05:44:48.071Z,22.15
2022-10-17T05:45:52.607Z,22.20
2022-10-17T05:46:55.760Z,22.21
2022-10-17T05:47:57.679Z,22.24
2022-10-17T05:48:59.865Z,22.21
2022-10-17T05:50:01.810Z,22.28
2022-10-17T05:51:12.710Z,22.32
2022-10-17T05:52:17.382Z,22.35
2022-10-17T05:53:40.687Z,22.40
2022-10-17T05:54:46.337Z,22.37
2022-10-17T05:55:56.050Z,22.35
2022-10-17T05:56:58.354Z,22.41
2022-10-17T05:58:04.983Z,22.44
2022-10-17T05:59:11.075Z,22.46
2022-10-17T06:00:22.421Z,22.40
2022-10-17T06:01:30.973Z,22.48
2022-10-17T06:02:33.312Z,22.49
2022-10-17T06:03:35.391Z,22.50
2022-10-17T06:04:45.583Z,22.50
2022-10-17T06:05:48.502Z,22.52
2022-10-17T06:06:50.539Z,22.52
2022-10-17T06:07:58.235Z,22.47
2022-10-17T06:09:04.228Z,22.54
2022-10-17T06:10:13.087Z,22.55
2022-10-17T06:11:14.878Z,22.54
2022-10-17T06:12:16.683Z,22.57
2022-10-17T06:13:19.391Z,22.58
2022-10-17T06:14:24.890Z,22.61
2022-10-17T06:15:30.706Z,22.60
2022-10-17T06:16:37.251Z,22.65
2022-10-17T06:17:39.300Z,22.64
2022-10-17T06:18:41.056Z,22.65
2022-10-17T06:19:44.737Z,22.51
2022-10-17T06:20:48.370Z,22.66
2022-10-17T06:21:52.145Z,22.68
2022-10-17T06:22:56.751Z,22.70
2022-10-17T06:24:12.234Z,22.72
2022-10-17T06:25:16.355Z,22.73
2022-10-17T06:26:18.166Z,22.73
2022-10-17T06:27:21.221Z,22.73
2022-10-17T06:28:23.161Z,22.73
2022-10-17T06:29:24.930Z,22.72
2022-10-17T06:30:27.310Z,22.73
2022-10-17T06:31:29.495Z,22.73
2022-10-17T06:32:31.674Z,22.69
2022-10-17T06:33:34.647Z,22.69
2022-10-17T06:34:37.335Z,22.76
2022-10-17T06:35:39.146Z,22.77
2022-10-17T06:36:40.871Z,22.77
2022-10-17T06:37:43.667Z,22.57
2022-10-17T06:38:45.490Z,22.74
2022-10-17T06:39:56.750Z,22.80
2022-10-17T06:41:25.406Z,22.85
2022-10-17T06:42:29.346Z,22.86
2022-10-17T06:43:51.367Z,22.88
2022-10-17T06:45:19.039Z,22.90
2022-10-17T06:46:43.763Z,22.90
2022-10-17T06:47:49.974Z,22.88
2022-10-17T06:49:07.860Z,22.86
2022-10-17T06:50:32.078Z,22.90
2022-10-17T06:51:46.159Z,22.83
2022-10-17T06:52:52.704Z,22.69
2022-10-17T06:54:23.603Z,22.90
2022-10-17T06:56:03.844Z,22.94
2022-10-17T06:57:24.147Z,22.88
2022-10-17T06:58:39.101Z,22.89
2022-10-17T07:00:01.094Z,22.89
2022-10-17T07:01:12.153Z,22.87
2022-10-17T07:02:14.858Z,22.86
2022-10-17T07:03:18.043Z,22.83
2022-10-17T07:04:19.750Z,22.73
2022-10-17T07:05:21.531Z,22.81
2022-10-17T07:06:24.737Z,22.80
2022-10-17T07:07:27.468Z,22.77
2022-10-17T07:08:29.876Z,22.71
2022-10-17T07:09:32.992Z,22.80
2022-10-17T07:10:39.538Z,22.80
2022-10-17T07:11:42.652Z,22.82
2022-10-17T07:12:45.877Z,22.79
2022-10-17T07:13:48.423Z,22.70
2022-10-17T07:14:50.733Z,22.81
2022-10-17T07:15:52.717Z,22.80
2022-10-17T07:16:54.899Z,22.81
2022-10-17T07:17:58.936Z,22.82
2022-10-17T07:19:00.838Z,22.81
2022-10-17T07:20:09.288Z,22.83
2022-10-17T07:21:12.555Z,22.83
2022-10-17T07:22:15.363Z,22.71
2022-10-17T07:23:22.550Z,22.83
2022-10-17T07:24:24.256Z,22.80
2022-10-17T07:26:01.580Z,22.88
2022-10-17T07:27:04.974Z,22.88
2022-10-17T07:28:06.795Z,22.86
2022-10-17T07:29:09.656Z,22.84
2022-10-17T07:30:19.422Z,22.85
2022-10-17T07:31:32.126Z,22.86
2022-10-17T07:32:33.814Z,22.84
2022-10-17T07:33:36.394Z,22.84
2022-10-17T07:34:38.193Z,22.81
2022-10-17T07:35:41.309Z,22.81
2022-10-17T07:36:43.361Z,22.82
2022-10-17T07:37:45.901Z,22.82
2022-10-17T07:38:49.612Z,22.78
2022-10-17T07:39:52.716Z,22.81
2022-10-17T07:40:59.283Z,22.81
2022-10-17T07:42:00.998Z,22.82
2022-10-17T07:43:03.850Z,22.82
2022-10-17T07:44:06.275Z,22.82
2022-10-17T07:45:12.696Z,22.83
2022-10-17T07:46:14.931Z,22.81
2022-10-17T07:47:16.739Z,22.81
2022-10-17T07:48:20.898Z,22.80
2022-10-17T07:49:23.555Z,22.81
2022-10-17T07:50:25.715Z,22.81
2022-10-17T07:51:27.995Z,22.81
2022-10-17T07:52:29.934Z,22.74
2022-10-17T07:53:31.975Z,22.81
2022-10-17T07:54:33.639Z,22.82
2022-10-17T07:55:38.049Z,22.81
2022-10-17T07:56:40.204Z,22.76
2022-10-17T07:57:42.087Z,22.79
2022-10-17T07:58:43.892Z,22.81
2022-10-17T07:59:45.599Z,22.81
2022-10-17T08:00:51.190Z,22.81
2022-10-17T08:01:56.016Z,22.81
2022-10-17T08:02:57.783Z,22.77
2022-10-17T08:03:59.554Z,22.82
2022-10-17T08:05:01.243Z,22.82
2022-10-17T08:06:03.950Z,22.81
2022-10-17T08:07:19.560Z,22.81
2022-10-17T08:08:22.672Z,22.84
2022-10-17T08:09:24.363Z,22.76
2022-10-17T08:10:27.826Z,22.82
2022-10-17T08:11:29.608Z,22.83
2022-10-17T08:12:34.353Z,22.69
2022-10-17T08:13:37.163Z,22.81
2022-10-17T08:14:39.906Z,22.82
2022-10-17T08:15:41.615Z,22.82
2022-10-17T08:16:43.831Z,22.81
2022-10-17T08:17:45.587Z,22.81
2022-10-17T08:18:47.330Z,22.80
2022-10-17T08:19:49.117Z,22.80
2022-10-17T08:20:51.090Z,22.80
2022-10-17T08:21:54.463Z,22.80
2022-10-17T08:22:56.212Z,22.81
2022-10-17T08:23:58.051Z,22.74
2022-10-17T08:24:59.813Z,22.81
2022-10-17T08:26:03.462Z,22.81
2022-10-17T08:27:11.514Z,22.82
2022-10-17T08:28:13.417Z,22.84
2022-10-17T08:29:16.789Z,22.82
2022-10-17T08:30:18.541Z,22.82
2022-10-17T08:31:20.950Z,22.75
2022-10-17T08:32:25.987Z,22.81
2022-10-17T08:33:27.742Z,22.82
2022-10-17T08:34:29.641Z,22.73
2022-10-17T08:35:31.414Z,22.82
2022-10-17T08:36:33.231Z,22.78
2022-10-17T08:37:34.968Z,22.82
2022-10-17T08:38:38.491Z,22.73
2022-10-17T08:39:43.783Z,22.83
2022-10-17T08:40:49.575Z,22.82
2022-10-17T08:42:17.986Z,22.84
2022-10-17T08:43:35.590Z,22.83
2022-10-17T08:44:53.630Z,22.94
2022-10-17T08:46:00.552Z,22.80
2022-10-17T08:47:06.563Z,22.89
2022-10-17T08:48:14.842Z,22.86
2022-10-17T08:49:24.470Z,22.87
2022-10-17T08:50:48.299Z,22.89
2022-10-17T08:51:56.277Z,22.90
2022-10-17T08:53:04.067Z,22.88
2022-10-17T08:54:16.653Z,22.88
2022-10-17T08:55:28.935Z,22.63
2022-10-17T08:56:49.054Z,22.78
2022-10-17T08:57:51.171Z,22.91
2022-10-17T08:58:53.529Z,22.69
2022-10-17T08:59:55.506Z,22.88
2022-10-17T09:01:22.688Z,22.86
2022-10-17T09:02:38.299Z,22.90
2022-10-17T09:03:58.599Z,22.96
2022-10-17T09:05:37.290Z,22.95
2022-10-17T09:07:14.360Z,23.02
2022-10-17T09:08:28.163Z,22.99
2022-10-17T09:09:44.790Z,22.95
2022-10-17T09:11:02.566Z,22.94
2022-10-17T09:12:16.968Z,22.93
2022-10-17T09:13:30.918Z,22.90
2022-10-17T09:15:11.694Z,22.94
2022-10-17T09:16:42.222Z,22.96
2022-10-17T09:17:55.136Z,22.96
2022-10-17T09:18:59.420Z,22.92
2022-10-17T09:20:12.598Z,22.89
2022-10-17T09:21:46.073Z,22.94
2022-10-17T09:22:51.900Z,22.94
2022-10-17T09:24:09.481Z,22.92
2022-10-17T09:25:20.914Z,22.93
2022-10-17T09:26:23.403Z,22.92
2022-10-17T09:27:32.811Z,22.88
2022-10-17T09:28:40.284Z,22.89
2022-10-17T09:29:44.950Z,22.90
2022-10-17T09:30:55.736Z,22.86
2022-10-17T09:32:21.239Z,22.95
2022-10-17T09:33:35.237Z,22.96
2022-10-17T09:34:55.134Z,22.97
2022-10-17T09:35:59.512Z,22.94
2022-10-17T09:37:02.511Z,22.91
2022-10-17T09:38:05.098Z,22.91
2022-10-17T09:39:18.879Z,22.90
2022-10-17T09:40:33.738Z,22.95
2022-10-17T09:41:47.300Z,22.94
2022-10-17T09:42:51.295Z,22.95
2022-10-17T09:43:56.753Z,22.93
2022-10-17T09:45:01.373Z,22.90
2022-10-17T09:46:13.125Z,22.93
2022-10-17T09:47:20.847Z,22.95
2022-10-17T09:48:48.746Z,23.00
2022-10-17T09:49:53.784Z,23.00
2022-10-17T09:51:08.302Z,22.95
2022-10-17T09:52:22.427Z,23.00
2022-10-17T09:53:33.595Z,22.99
2022-10-17T09:54:44.126Z,22.94
2022-10-17T09:55:49.489Z,22.98
2022-10-17T09:57:01.793Z,22.98
2022-10-17T09:58:06.126Z,22.97
2022-10-17T09:59:13.802Z,22.96
2022-10-17T10:00:26.004Z,22.96
2022-10-17T10:01:30.774Z,22.97
2022-10-17T10:02:36.489Z,22.97
2022-10-17T10:03:38.256Z,22.94
2022-10-17T10:05:24.821Z,23.00
2022-10-17T10:06:26.555Z,23.05
2022-10-17T10:07:30.935Z,23.01
2022-10-17T10:08:36.273Z,22.96
2022-10-17T10:09:39.651Z,22.99
2022-10-17T10:10:43.395Z,22.98
2022-10-17T10:11:55.370Z,22.96
2022-10-17T10:13:15.815Z,23.03
2022-10-17T10:14:29.417Z,22.98
2022-10-17T10:15:37.958Z,23.02
2022-10-17T10:16:47.847Z,23.01
2022-10-17T10:17:49.649Z,23.00
2022-10-17T10:18:52.255Z,23.00
2022-10-17T10:19:54.810Z,22.95
2022-10-17T10:21:16.532Z,23.00
2022-10-17T10:22:20.506Z,23.00
2022-10-17T10:23:22.727Z,23.00
2022-10-17T10:24:30.627Z,22.99
2022-10-17T10:25:33.385Z,23.00
2022-10-17T10:26:40.272Z,22.99
2022-10-17T10:27:46.511Z,22.99
2022-10-17T10:29:02.258Z,22.96
2022-10-17T10:30:04.968Z,23.03
2022-10-17T10:31:08.654Z,23.01
2022-10-17T10:32:21.078Z,22.93
2022-10-17T10:33:27.052Z,23.03
2022-10-17T10:34:31.495Z,23.02
2022-10-17T10:35:35.911Z,23.00
2022-10-17T10:37:18.654Z,23.10
2022-10-17T10:38:21.123Z,23.08
2022-10-17T10:39:37.827Z,23.08
2022-10-17T10:40:47.497Z,23.07
2022-10-17T10:41:49.282Z,23.05
2022-10-17T10:42:54.015Z,23.03
2022-10-17T10:43:56.587Z,23.04
2022-10-17T10:45:04.145Z,23.02
2022-10-17T10:46:17.959Z,23.00
2022-10-17T10:47:21.148Z,23.06
2022-10-17T10:48:44.684Z,23.04
2022-10-17T10:49:46.810Z,23.08
2022-10-17T10:51:06.026Z,23.07
2022-10-17T10:52:10.405Z,23.09
2022-10-17T10:53:39.982Z,23.09
2022-10-17T10:55:03.044Z,23.13
2022-10-17T10:56:19.860Z,23.15
2022-10-17T10:57:25.780Z,23.11
2022-10-17T10:58:40.307Z,23.09
2022-10-17T10:59:58.429Z,23.11
2022-10-17T11:01:05.366Z,23.06
2022-10-17T11:02:36.810Z,23.07
2022-10-17T11:03:54.909Z,23.14
2022-10-17T11:05:36.747Z,23.18
2022-10-17T11:06:42.206Z,23.18
2022-10-17T11:08:06.732Z,23.17
2022-10-17T11:09:20.182Z,23.14
2022-10-17T11:10:49.530Z,23.18
2022-10-17T11:12:00.231Z,23.16
2022-10-17T11:13:11.435Z,23.15
2022-10-17T11:14:28.785Z,23.13
2022-10-17T11:15:51.725Z,23.16
2022-10-17T11:17:06.024Z,23.16
2022-10-17T11:18:16.400Z,23.14
2022-10-17T11:19:28.604Z,23.14
2022-10-17T11:20:59.867Z,23.17
2022-10-17T11:22:30.903Z,23.18
2022-10-17T11:23:40.738Z,23.19
2022-10-17T11:24:57.345Z,23.16
2022-10-17T11:26:02.576Z,23.17
2022-10-17T11:27:06.048Z,23.14
2022-10-17T11:28:18.210Z,23.12
2022-10-17T11:29:20.287Z,23.14
2022-10-17T11:30:27.056Z,23.11
2022-10-17T11:31:40.077Z,23.07
2022-10-17T11:32:47.679Z,23.13
2022-10-17T11:34:20.252Z,23.19
2022-10-17T11:35:38.061Z,23.21
2022-10-17T11:36:44.307Z,23.19
2022-10-17T11:38:03.294Z,23.18
2022-10-17T11:39:12.123Z,23.18
2022-10-17T11:40:36.302Z,23.17
2022-10-17T11:41:41.314Z,23.19
2022-10-17T11:43:05.350Z,23.19
2022-10-17T11:44:20.217Z,23.22
2022-10-17T11:45:26.484Z,23.18
2022-10-17T11:46:29.506Z,23.19
2022-10-17T11:47:54.295Z,23.16
2022-10-17T11:49:20.495Z,23.20
2022-10-17T11:52:03.129Z,23.24
2022-10-17T11:53:22.163Z,23.15
2022-10-17T11:54:43.813Z,23.26
2022-10-17T11:55:46.740Z,23.09
2022-10-17T11:57:14.787Z,23.24
2022-10-17T11:58:22.671Z,23.25
2022-10-17T11:59:48.503Z,23.22
2022-10-17T12:00:52.928Z,23.25
2022-10-17T12:02:05.498Z,23.16
2022-10-17T12:03:25.102Z,23.23
2022-10-17T12:04:39.257Z,23.25
2022-10-17T12:06:00.477Z,23.27
2022-10-17T12:07:38.293Z,23.28
2022-10-17T12:09:19.033Z,23.25
2022-10-17T12:10:39.514Z,23.36
2022-10-17T12:11:50.898Z,23.30
2022-10-17T12:12:52.649Z,23.22
2022-10-17T12:13:56.471Z,23.24
2022-10-17T12:15:23.890Z,23.25
2022-10-17T12:16:25.557Z,23.27
2022-10-17T12:17:32.991Z,23.22
2022-10-17T12:19:37.759Z,23.20
2022-10-17T12:20:40.218Z,23.20
2022-10-17T12:22:06.354Z,23.02
2022-10-17T12:23:10.783Z,23.25
2022-10-17T12:24:41.578Z,23.22
2022-10-17T12:26:01.658Z,23.28
2022-10-17T12:27:45.907Z,23.34
2022-10-17T12:28:48.455Z,23.35
2022-10-17T12:29:50.921Z,23.30
2022-10-17T12:30:54.730Z,23.25
2022-10-17T12:32:13.264Z,23.22
2022-10-17T12:33:22.443Z,23.29
2022-10-17T12:34:24.626Z,23.27
2022-10-17T12:35:28.587Z,23.26
2022-10-17T12:36:30.250Z,23.22
2022-10-17T12:37:57.338Z,23.26
2022-10-17T12:39:03.176Z,23.30
2022-10-17T12:40:36.532Z,23.32
2022-10-17T12:41:38.269Z,23.34
2022-10-17T12:42:48.612Z,23.30
2022-10-17T12:43:54.827Z,23.30
2022-10-17T12:44:56.695Z,23.24
2022-10-17T12:46:02.817Z,23.28
2022-10-17T12:47:10.642Z,23.28
2022-10-17T12:48:12.567Z,23.28
2022-10-17T12:49:24.428Z,23.28
2022-10-17T12:51:30.836Z,23.35
2022-10-17T12:52:32.151Z,23.41
2022-10-17T12:54:08.970Z,23.40
2022-10-17T12:55:18.088Z,23.40
2022-10-17T12:56:22.451Z,23.36
2022-10-17T12:57:33.205Z,23.35
2022-10-17T12:58:35.936Z,23.34
2022-10-17T12:59:37.636Z,23.31
2022-10-17T13:01:05.224Z,23.28
2022-10-17T13:02:19.124Z,23.36
2022-10-17T13:03:26.946Z,23.34
2022-10-17T13:04:30.672Z,23.34
2022-10-17T13:05:36.134Z,23.31
2022-10-17T13:06:44.983Z,23.31
2022-10-17T13:07:49.459Z,23.31
2022-10-17T13:09:04.120Z,23.31
2022-10-17T13:10:18.865Z,23.32
2022-10-17T13:11:27.610Z,23.35
2022-10-17T13:12:29.828Z,23.35
2022-10-17T13:13:41.858Z,23.33
2022-10-17T13:14:46.113Z,23.34
2022-10-17T13:15:53.674Z,23.32
2022-10-17T13:16:58.530Z,23.32
2022-10-17T13:18:02.510Z,23.32
2022-10-17T13:19:13.607Z,23.33
2022-10-17T13:20:28.924Z,23.34
2022-10-17T13:21:33.192Z,23.12
2022-10-17T13:22:34.954Z,23.29
2022-10-17T13:23:38.024Z,23.32
2022-10-17T13:24:41.065Z,23.28
2022-10-17T13:25:42.837Z,23.27
2022-10-17T13:26:46.078Z,23.30
2022-10-17T13:27:49.326Z,23.26
2022-10-17T13:30:27.934Z,23.37
2022-10-17T13:31:35.456Z,23.38
2022-10-17T13:32:39.765Z,23.31
2022-10-17T13:33:42.390Z,23.34
2022-10-17T13:34:44.263Z,23.32
2022-10-17T13:36:00.010Z,23.26
2022-10-17T13:37:06.946Z,23.36
2022-10-17T13:38:08.713Z,23.30
2022-10-17T13:39:17.121Z,23.32
2022-10-17T13:41:49.922Z,23.40
2022-10-17T13:42:53.794Z,23.37
2022-10-17T13:43:58.165Z,23.34
2022-10-17T13:45:00.146Z,23.35
2022-10-17T13:46:25.407Z,23.34
2022-10-17T13:47:30.826Z,23.38
2022-10-17T13:48:37.068Z,23.19
2022-10-17T13:49:43.054Z,23.30
2022-10-17T13:50:50.360Z,23.33
2022-10-17T13:51:54.104Z,23.35
2022-10-17T13:53:13.188Z,23.36
2022-10-17T13:54:40.446Z,23.36
2022-10-17T13:56:26.386Z,23.42
2022-10-17T13:57:27.994Z,23.43
2022-10-17T13:58:42.569Z,23.40
2022-10-17T13:59:47.863Z,23.40
2022-10-17T14:00:53.323Z,23.37
2022-10-17T14:01:56.033Z,23.36
2022-10-17T14:02:57.760Z,23.30
2022-10-17T14:04:09.404Z,23.34
2022-10-17T14:05:19.321Z,23.35
2022-10-17T14:06:24.432Z,23.34
2022-10-17T14:09:24.703Z,23.45
2022-10-17T14:10:36.798Z,23.42
2022-10-17T14:11:42.078Z,23.40
2022-10-17T14:12:45.619Z,23.29
2022-10-17T14:13:52.313Z,23.36
2022-10-17T14:15:11.197Z,23.36
2022-10-17T14:16:13.270Z,23.39
2022-10-17T14:17:35.961Z,23.41
2022-10-17T14:18:38.184Z,23.40
2022-10-17T14:19:40.379Z,23.31
2022-10-17T14:21:31.737Z,23.28
2022-10-17T14:22:24.710Z,23.41
2022-10-17T14:23:41.694Z,23.39
2022-10-17T14:24:43.858Z,23.42
2022-10-17T14:25:45.558Z,23.39
2022-10-17T14:26:52.959Z,23.36
2022-10-17T14:28:02.581Z,23.36
2022-10-17T14:29:07.127Z,23.36
2022-10-17T14:30:51.830Z,23.40
2022-10-17T14:31:53.490Z,23.40
2022-10-17T14:32:58.251Z,23.35
2022-10-17T14:34:01.779Z,23.37
2022-10-17T14:35:30.223Z,23.38
2022-10-17T14:36:37.503Z,23.41
2022-10-17T14:37:44.418Z,23.38
2022-10-17T14:38:50.130Z,23.40
2022-10-17T14:39:52.370Z,23.39
2022-10-17T14:41:23.548Z,23.38
2022-10-17T14:42:23.612Z,23.42
2022-10-17T14:43:28.503Z,23.39
2022-10-17T14:44:33.145Z,23.38
2022-10-17T14:45:38.323Z,23.30
2022-10-17T14:46:49.584Z,23.38
2022-10-17T14:47:54.627Z,23.39
2022-10-17T14:49:04.169Z,23.37
2022-10-17T14:50:12.058Z,23.38
2022-10-17T14:51:16.895Z,23.30
2022-10-17T14:52:19.042Z,23.39